createdAt,value
2022-10-22T00:01:16.487Z,96740.66
2022-10-22T00:03:43.204Z,96744.66
2022-10-22T00:06:09.902Z,96732.78
2022-10-22T00:08:36.664Z,96729.25
2022-10-22T00:11:13.997Z,96731.94
2022-10-22T00:13:40.850Z,96721.16
2022-10-22T00:16:08.050Z,96713.56
2022-10-22T00:18:35.310Z,96716.09
2022-10-22T00:21:02.269Z,96699.09
2022-10-22T00:23:28.952Z,96696.69
2022-10-22T00:25:55.813Z,96687.00
2022-10-22T00:28:22.467Z,96689.72
2022-10-22T00:30:49.306Z,96701.28
2022-10-22T00:33:16.078Z,96724.78
2022-10-22T00:35:44.147Z,96732.00
2022-10-22T00:38:10.914Z,96719.97
2022-10-22T00:40:37.662Z,96707.28
2022-10-22T00:43:04.430Z,96700.91
2022-10-22T00:45:30.993Z,96713.50
2022-10-22T00:48:13.450Z,96705.81
2022-10-22T00:50:45.445Z,96692.31
2022-10-22T00:53:17.500Z,96701.19
2022-10-22T00:55:44.578Z,96692.00
2022-10-22T00:58:11.338Z,96693.41
2022-10-22T01:00:38.054Z,96695.41
2022-10-22T01:03:04.761Z,96710.28
2022-10-22T01:05:33.143Z,96720.88
2022-10-22T01:07:59.929Z,96717.06
2022-10-22T01:10:47.366Z,96705.28
2022-10-22T01:13:46.169Z,96710.56
2022-10-22T01:16:36.263Z,96706.97
2022-10-22T01:19:24.914Z,96693.31
2022-10-22T01:22:28.360Z,96694.56
2022-10-22T01:25:06.273Z,96713.16
2022-10-22T01:28:01.153Z,96716.06
2022-10-22T01:30:28.333Z,96695.69
2022-10-22T01:32:58.850Z,96698.38
2022-10-22T01:38:02.235Z,96706.38
2022-10-22T01:40:29.136Z,96705.56
2022-10-22T01:43:00.320Z,96718.16
2022-10-22T01:45:28.666Z,96717.06
2022-10-22T01:48:33.033Z,96727.97
2022-10-22T01:51:08.765Z,96742.13
2022-10-22T01:53:54.309Z,96727.84
2022-10-22T01:56:36.129Z,96721.66
2022-10-22T01:59:19.994Z,96731.34
2022-10-22T02:01:46.578Z,96717.06
2022-10-22T02:04:20.339Z,96711.38
2022-10-22T02:06:47.176Z,96705.84
2022-10-22T02:09:15.148Z,96713.03
2022-10-22T02:11:42.344Z,96739.91
2022-10-22T02:14:09.054Z,96712.31
2022-10-22T02:16:38.113Z,96720.72
2022-10-22T02:19:08.636Z,96698.13
2022-10-22T02:21:35.662Z,96742.03
2022-10-22T02:24:02.350Z,96708.00
2022-10-22T02:26:34.746Z,96712.31
2022-10-22T02:29:21.811Z,96705.69
2022-10-22T02:31:48.603Z,96712.31
2022-10-22T02:34:18.423Z,96727.69
2022-10-22T02:36:48.069Z,96712.41
2022-10-22T02:41:44.201Z,96728.53
2022-10-22T02:44:10.948Z,96730.41
2022-10-22T02:46:38.933Z,96734.72
2022-10-22T02:49:05.819Z,96714.47
2022-10-22T02:51:32.687Z,96766.38
2022-10-22T02:53:59.381Z,96738.41
2022-10-22T02:56:26.103Z,96753.19
2022-10-22T02:58:52.804Z,96777.88
2022-10-22T03:01:19.596Z,96757.97
2022-10-22T03:03:46.451Z,96766.50
2022-10-22T03:06:13.136Z,96753.47
2022-10-22T03:08:40.008Z,96769.28
2022-10-22T03:11:06.906Z,96743.88
2022-10-22T03:13:33.679Z,96764.59
2022-10-22T03:16:00.371Z,96745.09
2022-10-22T03:18:27.162Z,96742.50
2022-10-22T03:21:27.860Z,96765.69
2022-10-22T03:23:54.714Z,96750.97
2022-10-22T03:26:21.452Z,96734.59
2022-10-22T03:28:48.194Z,96731.59
2022-10-22T03:31:15.126Z,96730.50
2022-10-22T03:33:41.757Z,96744.91
2022-10-22T03:36:08.715Z,96723.31
2022-10-22T03:38:39.145Z,96719.97
2022-10-22T03:41:05.880Z,96701.78
2022-10-22T03:43:34.778Z,96711.00
2022-10-22T03:46:01.588Z,96700.38
2022-10-22T03:48:28.335Z,96699.50
2022-10-22T03:50:55.032Z,96719.78
2022-10-22T03:53:21.833Z,96725.63
2022-10-22T03:55:48.598Z,96764.75
2022-10-22T03:58:15.396Z,96765.50
2022-10-22T04:00:42.245Z,96744.34
2022-10-22T04:03:08.979Z,96773.84
2022-10-22T04:05:35.645Z,96792.31
2022-10-22T04:08:02.457Z,96801.59
2022-10-22T04:10:29.220Z,96812.78
2022-10-22T04:12:55.979Z,96800.19
2022-10-22T04:15:22.576Z,96782.13
2022-10-22T04:17:49.361Z,96798.56
2022-10-22T04:20:16.077Z,96772.63
2022-10-22T04:22:42.796Z,96775.53
2022-10-22T04:25:09.950Z,96771.69
2022-10-22T04:27:36.825Z,96769.97
2022-10-22T04:30:04.812Z,96785.75
2022-10-22T04:32:31.682Z,96758.06
2022-10-22T04:34:58.482Z,96831.28
2022-10-22T04:37:25.271Z,96781.03
2022-10-22T04:39:52.009Z,96778.94
2022-10-22T04:42:18.767Z,96798.22
2022-10-22T04:44:45.554Z,96794.22
2022-10-22T04:47:12.293Z,96773.69
2022-10-22T04:49:39.124Z,96790.72
2022-10-22T04:52:06.060Z,96745.84
2022-10-22T04:54:33.248Z,96797.88
2022-10-22T04:57:00.031Z,96868.59
2022-10-22T04:59:26.867Z,96793.09
2022-10-22T05:01:53.645Z,96804.09
2022-10-22T05:04:20.217Z,96793.28
2022-10-22T05:06:46.965Z,96807.91
2022-10-22T05:09:18.030Z,96788.63
2022-10-22T05:11:45.700Z,96817.63
2022-10-22T05:14:12.810Z,96818.13
2022-10-22T05:16:39.605Z,96808.59
2022-10-22T05:19:06.446Z,96833.41
2022-10-22T05:21:33.317Z,96845.19
2022-10-22T05:24:00.084Z,96825.63
2022-10-22T05:26:27.030Z,96831.31
2022-10-22T05:28:53.689Z,96848.34
2022-10-22T05:31:20.874Z,96850.75
2022-10-22T05:33:47.691Z,96839.41
2022-10-22T05:36:16.697Z,96854.84
2022-10-22T05:38:43.414Z,96873.63
2022-10-22T05:41:11.878Z,96842.41
2022-10-22T05:43:38.496Z,96865.78
2022-10-22T05:46:11.369Z,96899.91
2022-10-22T05:48:38.212Z,96858.16
2022-10-22T05:51:06.754Z,96853.88
2022-10-22T05:53:33.974Z,96875.38
2022-10-22T05:56:02.269Z,96875.50
2022-10-22T05:58:29.017Z,96856.31
2022-10-22T06:01:00.886Z,96870.66
2022-10-22T06:03:27.677Z,96868.56
2022-10-22T06:05:54.453Z,96877.78
2022-10-22T06:08:21.217Z,96870.09
2022-10-22T06:10:47.944Z,96881.66
2022-10-22T06:13:14.659Z,96863.41
2022-10-22T06:15:41.461Z,96867.63
2022-10-22T06:18:08.263Z,96895.19
2022-10-22T06:20:35.308Z,96897.69
2022-10-22T06:23:01.985Z,96902.59
2022-10-22T06:25:28.679Z,96891.31
2022-10-22T06:27:55.434Z,96901.50
2022-10-22T06:30:22.216Z,96913.41
2022-10-22T06:32:49.010Z,96892.84
2022-10-22T06:35:15.998Z,96877.88
2022-10-22T06:37:43.216Z,96914.94
2022-10-22T06:40:10.663Z,96927.56
2022-10-22T06:42:37.825Z,96928.78
2022-10-22T06:45:05.124Z,96923.38
2022-10-22T06:47:31.969Z,96924.16
2022-10-22T06:49:58.634Z,96923.84
2022-10-22T06:52:25.441Z,96920.34
2022-10-22T06:54:52.323Z,96934.47
2022-10-22T06:57:19.069Z,96925.75
2022-10-22T06:59:46.448Z,96929.88
2022-10-22T07:02:13.357Z,96947.09
2022-10-22T07:04:40.053Z,96989.97
2022-10-22T07:07:06.612Z,96950.81
2022-10-22T07:09:33.223Z,96983.56
2022-10-22T07:11:59.960Z,96984.03
2022-10-22T07:14:26.810Z,96980.53
2022-10-22T07:16:53.465Z,96995.97
2022-10-22T07:19:20.076Z,96990.63
2022-10-22T07:21:46.885Z,97001.44
2022-10-22T07:24:13.804Z,96986.03
2022-10-22T07:26:40.448Z,96996.84
2022-10-22T07:29:07.146Z,96992.31
2022-10-22T07:31:33.868Z,96968.00
2022-10-22T07:34:00.441Z,96998.81
2022-10-22T07:36:27.140Z,96983.47
2022-10-22T07:38:56.134Z,97016.81
2022-10-22T07:41:22.753Z,96995.38
2022-10-22T07:43:49.446Z,97022.41
2022-10-22T07:46:15.936Z,97016.41
2022-10-22T07:48:42.546Z,97014.97
2022-10-22T07:51:09.125Z,97026.81
2022-10-22T07:53:35.895Z,97031.97
2022-10-22T07:56:02.602Z,97010.88
2022-10-22T07:58:29.366Z,97036.34
2022-10-22T08:00:56.521Z,97004.66
2022-10-22T08:03:23.029Z,97025.16
2022-10-22T08:05:49.902Z,97026.94
2022-10-22T08:08:16.573Z,97015.22
2022-10-22T08:10:43.310Z,97039.59
2022-10-22T08:13:10.059Z,97045.88
2022-10-22T08:15:36.679Z,97024.84
2022-10-22T08:18:03.338Z,97041.44
2022-10-22T08:20:29.853Z,97059.00
2022-10-22T08:22:56.355Z,97060.91
2022-10-22T08:25:22.916Z,97081.69
2022-10-22T08:27:49.683Z,97045.22
2022-10-22T08:30:16.238Z,97049.44
2022-10-22T08:32:42.947Z,97036.59
2022-10-22T08:35:11.121Z,97056.72
2022-10-22T08:37:39.706Z,97068.53
2022-10-22T08:40:06.943Z,97038.91
2022-10-22T08:43:10.668Z,97050.72
2022-10-22T08:45:51.135Z,97060.75
2022-10-22T08:48:31.467Z,97066.78
2022-10-22T08:50:58.226Z,97092.22
2022-10-22T08:53:32.201Z,97076.00
2022-10-22T08:55:58.876Z,97099.44
2022-10-22T08:58:47.650Z,97090.63
2022-10-22T09:01:17.134Z,97060.16
2022-10-22T09:03:52.338Z,97050.81
2022-10-22T09:06:24.187Z,97109.88
2022-10-22T09:08:50.856Z,97083.78
2022-10-22T09:11:34.956Z,97073.28
2022-10-22T09:14:02.050Z,97101.16
2022-10-22T09:16:56.425Z,97125.91
2022-10-22T09:19:27.051Z,97113.56
2022-10-22T09:22:08.809Z,97109.28
2022-10-22T09:24:38.907Z,97111.97
2022-10-22T09:27:31.732Z,97083.50
2022-10-22T09:29:58.293Z,97102.81
2022-10-22T09:32:25.323Z,97087.13
2022-10-22T09:34:56.082Z,97098.81
2022-10-22T09:37:26.339Z,97122.72
2022-10-22T09:39:52.989Z,97114.97
2022-10-22T09:42:20.324Z,97103.66
2022-10-22T09:44:59.410Z,97101.91
2022-10-22T09:47:43.694Z,97101.41
2022-10-22T09:50:29.715Z,97127.63
2022-10-22T09:53:19.354Z,97126.63
2022-10-22T09:55:52.874Z,97131.19
2022-10-22T09:58:22.349Z,97136.47
2022-10-22T10:01:02.870Z,97148.00
2022-10-22T10:03:35.167Z,97111.97
2022-10-22T10:06:06.061Z,97142.66
2022-10-22T10:08:32.872Z,97137.41
2022-10-22T10:11:08.540Z,97136.78
2022-10-22T10:14:09.651Z,97146.22
2022-10-22T10:16:57.502Z,97156.22
2022-10-22T10:19:45.403Z,97154.81
2022-10-22T10:22:48.970Z,97142.06
2022-10-22T10:25:21.340Z,97172.25
2022-10-22T10:27:54.792Z,97129.66
2022-10-22T10:30:22.402Z,97159.97
2022-10-22T10:33:05.481Z,97135.25
2022-10-22T10:35:35.018Z,97131.47
2022-10-22T10:38:29.678Z,97161.28
2022-10-22T10:41:06.322Z,97149.31
2022-10-22T10:44:03.824Z,97154.31
2022-10-22T10:46:42.519Z,97240.75
2022-10-22T10:49:25.869Z,97154.31
2022-10-22T10:52:04.697Z,97146.97
2022-10-22T10:54:40.111Z,97144.59
2022-10-22T10:57:06.620Z,97135.34
2022-10-22T10:59:33.170Z,97126.59
2022-10-22T11:02:03.650Z,97193.66
2022-10-22T11:05:14.680Z,97106.75
2022-10-22T11:07:37.026Z,97099.00
2022-10-22T11:10:12.590Z,97125.69
2022-10-22T11:12:41.695Z,97105.94
2022-10-22T11:15:37.435Z,97119.13
2022-10-22T11:18:18.061Z,97120.72
2022-10-22T11:20:50.199Z,97112.34
2022-10-22T11:23:22.450Z,97109.50
2022-10-22T11:25:49.735Z,97136.72
2022-10-22T11:28:37.978Z,97119.69
2022-10-22T11:31:10.610Z,97129.00
2022-10-22T11:33:42.455Z,97111.72
2022-10-22T11:36:09.302Z,97133.28
2022-10-22T11:38:36.024Z,97112.81
2022-10-22T11:41:10.950Z,97117.31
2022-10-22T11:44:10.730Z,97113.81
2022-10-22T11:46:40.322Z,97111.88
2022-10-22T11:49:10.062Z,97099.78
2022-10-22T11:51:41.987Z,97097.41
2022-10-22T11:54:44.273Z,97092.34
2022-10-22T11:57:17.034Z,97124.34
2022-10-22T11:59:46.716Z,97108.88
2022-10-22T12:02:24.871Z,97105.81
2022-10-22T12:04:51.673Z,97088.06
2022-10-22T12:07:56.448Z,97114.84
2022-10-22T12:10:27.157Z,97118.44
2022-10-22T12:13:05.194Z,97091.22
2022-10-22T12:15:32.094Z,97098.06
2022-10-22T12:18:00.203Z,97096.81
2022-10-22T12:20:27.156Z,97086.16
2022-10-22T12:22:53.949Z,97108.03
2022-10-22T12:25:35.722Z,97089.56
2022-10-22T12:28:03.995Z,97091.19
2022-10-22T12:30:33.938Z,97094.28
2022-10-22T12:33:02.219Z,97118.31
2022-10-22T12:35:30.710Z,97098.03
2022-10-22T12:37:58.901Z,97085.16
2022-10-22T12:40:27.447Z,97085.63
2022-10-22T12:42:55.995Z,97099.44
2022-10-22T12:45:23.066Z,97107.47
2022-10-22T12:47:58.656Z,97088.22
2022-10-22T12:50:31.353Z,97080.59
2022-10-22T12:52:58.085Z,97071.81
2022-10-22T12:55:25.824Z,97085.72
2022-10-22T12:57:52.533Z,97069.38
2022-10-22T13:00:26.755Z,97102.63
2022-10-22T13:02:53.695Z,97071.81
2022-10-22T13:05:20.281Z,97099.19
2022-10-22T13:07:51.320Z,97083.66
2022-10-22T13:10:30.904Z,97088.03
2022-10-22T13:12:57.943Z,97088.97
2022-10-22T13:15:27.735Z,97098.78
2022-10-22T13:18:04.178Z,97081.94
2022-10-22T13:20:30.795Z,97097.19
2022-10-22T13:23:03.961Z,97084.84
2022-10-22T13:25:32.355Z,97079.25
2022-10-22T13:28:01.422Z,97081.22
2022-10-22T13:30:31.082Z,97083.97
2022-10-22T13:33:02.293Z,97092.34
2022-10-22T13:35:31.537Z,97100.56
2022-10-22T13:37:58.445Z,97087.41
2022-10-22T13:40:25.432Z,97083.56
2022-10-22T13:42:52.127Z,97061.25
2022-10-22T13:45:18.987Z,97084.00
2022-10-22T13:47:50.517Z,97075.41
2022-10-22T13:50:18.222Z,97103.75
2022-10-22T13:52:47.312Z,97085.91
2022-10-22T13:55:24.857Z,97078.63
2022-10-22T13:58:00.741Z,97102.72
2022-10-22T14:00:28.076Z,97111.13
2022-10-22T14:02:55.789Z,97083.28
2022-10-22T14:05:22.607Z,97096.06
2022-10-22T14:07:49.377Z,97085.97
2022-10-22T14:10:23.550Z,97100.00
2022-10-22T14:12:53.379Z,97087.81
2022-10-22T14:15:22.224Z,97116.63
2022-10-22T14:17:55.417Z,97085.47
2022-10-22T14:23:24.895Z,97085.94
2022-10-22T14:25:51.557Z,97102.38
2022-10-22T14:28:18.471Z,97095.81
2022-10-22T14:30:45.593Z,97087.66
2022-10-22T14:33:28.757Z,97101.06
2022-10-22T14:35:59.010Z,97099.94
2022-10-22T14:38:28.264Z,97101.84
2022-10-22T14:40:57.207Z,97093.03
2022-10-22T14:43:25.526Z,97084.69
2022-10-22T14:45:52.200Z,97094.00
2022-10-22T14:48:20.975Z,97099.94
2022-10-22T14:50:47.840Z,97106.78
2022-10-22T14:53:14.775Z,97101.81
2022-10-22T14:55:41.952Z,97107.44
2022-10-22T14:58:08.638Z,97106.66
2022-10-22T15:00:35.275Z,97111.63
2022-10-22T15:03:04.342Z,97122.00
2022-10-22T15:05:31.468Z,97107.31
2022-10-22T15:07:58.553Z,97111.69
2022-10-22T15:10:26.137Z,97153.41
2022-10-22T15:12:52.850Z,97104.63
2022-10-22T15:15:22.706Z,97128.31
2022-10-22T15:17:50.803Z,97129.63
2022-10-22T15:20:17.511Z,97114.91
2022-10-22T15:22:44.513Z,97123.44
2022-10-22T15:25:11.480Z,97140.19
2022-10-22T15:27:38.111Z,97127.09
2022-10-22T15:30:06.120Z,97140.22
2022-10-22T15:32:32.826Z,97116.88
2022-10-22T15:35:00.085Z,97123.28
2022-10-22T15:37:27.844Z,97137.69
2022-10-22T15:39:54.735Z,97121.22
2022-10-22T15:42:21.620Z,97143.91
2022-10-22T15:44:48.312Z,97138.47
2022-10-22T15:47:15.256Z,97150.06
2022-10-22T15:49:41.965Z,97168.81
2022-10-22T15:52:08.806Z,97155.03
2022-10-22T15:54:35.765Z,97167.41
2022-10-22T15:57:02.478Z,97209.13
2022-10-22T15:59:29.502Z,97163.56
2022-10-22T16:01:56.314Z,97182.59
2022-10-22T16:04:23.139Z,97162.91
2022-10-22T16:06:51.261Z,97168.88
2022-10-22T16:09:19.857Z,97165.63
2022-10-22T16:11:46.861Z,97169.16
2022-10-22T16:14:14.605Z,97177.28
2022-10-22T16:16:48.070Z,97174.69
2022-10-22T16:19:15.794Z,97185.03
2022-10-22T16:21:42.483Z,97144.63
2022-10-22T16:24:09.286Z,97167.88
2022-10-22T16:26:37.751Z,97196.50
2022-10-22T16:29:04.905Z,97200.72
2022-10-22T16:31:31.617Z,97173.50
2022-10-22T16:33:58.399Z,97180.84
2022-10-22T16:36:25.387Z,97182.06
2022-10-22T16:38:52.136Z,97174.16
2022-10-22T16:41:23.530Z,97207.41
2022-10-22T16:43:52.367Z,97244.50
2022-10-22T16:46:22.451Z,97197.22
2022-10-22T16:48:50.199Z,97201.00
2022-10-22T16:51:18.433Z,97202.81
2022-10-22T16:53:45.398Z,97209.94
2022-10-22T16:56:12.815Z,97218.72
2022-10-22T16:58:40.039Z,97234.75
2022-10-22T17:01:07.873Z,97191.88
2022-10-22T17:03:34.931Z,97214.34
2022-10-22T17:06:01.952Z,97216.22
2022-10-22T17:08:28.699Z,97222.59
2022-10-22T17:10:55.383Z,97217.94
2022-10-22T17:13:22.724Z,97213.00
2022-10-22T17:15:49.351Z,97234.88
2022-10-22T17:18:16.377Z,97225.88
2022-10-22T17:20:43.750Z,97250.16
2022-10-22T17:23:10.323Z,97201.50
2022-10-22T17:25:42.084Z,97222.31
2022-10-22T17:28:09.674Z,97223.47
2022-10-22T17:30:36.481Z,97246.31
2022-10-22T17:33:03.213Z,97236.53
2022-10-22T17:35:29.923Z,97269.56
2022-10-22T17:37:57.591Z,97274.69
2022-10-22T17:40:24.403Z,97253.28
2022-10-22T17:42:51.155Z,97259.09
2022-10-22T17:45:18.023Z,97256.75
2022-10-22T17:47:44.793Z,97278.28
2022-10-22T17:50:14.827Z,97269.63
2022-10-22T17:52:41.703Z,97261.44
2022-10-22T17:55:13.127Z,97262.44
2022-10-22T17:57:40.254Z,97266.00
2022-10-22T18:00:07.499Z,97264.94
2022-10-22T18:02:34.234Z,97246.72
2022-10-22T18:05:00.968Z,97256.41
2022-10-22T18:07:27.953Z,97255.44
2022-10-22T18:09:54.668Z,97254.41
2022-10-22T18:12:21.650Z,97246.56
2022-10-22T18:14:48.419Z,97256.69
2022-10-22T18:19:41.778Z,97240.34
2022-10-22T18:22:08.584Z,97253.16
2022-10-22T18:24:36.459Z,97252.28
2022-10-22T18:27:03.235Z,97246.34
2022-10-22T18:29:30.036Z,97241.25
2022-10-22T18:31:57.240Z,97264.97
2022-10-22T18:34:24.140Z,97269.88
2022-10-22T18:36:50.894Z,97235.97
2022-10-22T18:39:17.689Z,97257.00
2022-10-22T18:41:44.435Z,97263.81
2022-10-22T18:44:12.711Z,97270.00
2022-10-22T18:46:39.484Z,97266.03
2022-10-22T18:49:06.453Z,97271.97
2022-10-22T18:51:33.541Z,97292.66
2022-10-22T18:54:11.286Z,97274.38
2022-10-22T18:56:47.187Z,97279.03
2022-10-22T18:59:15.482Z,97264.16
2022-10-22T19:01:42.098Z,97268.72
2022-10-22T19:04:08.808Z,97264.16
2022-10-22T19:06:37.159Z,97278.53
2022-10-22T19:09:04.678Z,97242.47
2022-10-22T19:11:31.444Z,97270.75
2022-10-22T19:13:58.325Z,97264.56
2022-10-22T19:16:25.478Z,97261.09
2022-10-22T19:19:06.157Z,97273.97
2022-10-22T19:21:33.280Z,97285.00
2022-10-22T19:24:00.168Z,97263.22
2022-10-22T19:26:27.437Z,97284.25
2022-10-22T19:28:54.621Z,97272.19
2022-10-22T19:31:22.243Z,97256.66
2022-10-22T19:33:48.909Z,97274.16
2022-10-22T19:36:16.198Z,97280.66
2022-10-22T19:38:44.142Z,97256.72
2022-10-22T19:41:11.310Z,97266.09
2022-10-22T19:43:38.759Z,97285.75
2022-10-22T19:46:05.732Z,97245.34
2022-10-22T19:48:32.424Z,97257.75
2022-10-22T19:51:00.047Z,97259.91
2022-10-22T19:53:26.692Z,97280.91
2022-10-22T19:55:53.348Z,97288.97
2022-10-22T19:58:19.979Z,97289.44
2022-10-22T20:00:46.708Z,97268.31
2022-10-22T20:03:14.232Z,97264.59
2022-10-22T20:05:41.699Z,97260.50
2022-10-22T20:08:11.554Z,97270.56
2022-10-22T20:10:38.434Z,97290.59
2022-10-22T20:13:05.137Z,97274.94
2022-10-22T20:15:32.410Z,97259.34
2022-10-22T20:17:59.543Z,97270.16
2022-10-22T20:20:26.930Z,97276.66
2022-10-22T20:22:54.143Z,97253.84
2022-10-22T20:25:20.608Z,97284.56
2022-10-22T20:27:47.173Z,97266.59
2022-10-22T20:30:14.060Z,97274.69
2022-10-22T20:32:41.097Z,97257.50
2022-10-22T20:35:08.137Z,97276.91
2022-10-22T20:37:34.989Z,97279.66
2022-10-22T20:40:01.630Z,97288.53
2022-10-22T20:42:28.287Z,97290.13
2022-10-22T20:44:55.016Z,97292.31
2022-10-22T20:47:24.776Z,97302.91
2022-10-22T20:49:57.024Z,97289.44
2022-10-22T20:52:23.795Z,97280.59
2022-10-22T20:54:50.390Z,97286.84
2022-10-22T20:57:16.963Z,97300.91
2022-10-22T20:59:43.736Z,97319.81
2022-10-22T21:02:10.332Z,97287.03
2022-10-22T21:04:36.876Z,97320.41
2022-10-22T21:07:03.731Z,97333.38
2022-10-22T21:09:30.423Z,97313.97
2022-10-22T21:11:57.026Z,97306.75
2022-10-22T21:14:23.759Z,97332.06
2022-10-22T21:16:50.911Z,97346.88
2022-10-22T21:19:18.505Z,97313.06
2022-10-22T21:21:45.095Z,97308.50
2022-10-22T21:24:11.742Z,97321.97
2022-10-22T21:26:39.026Z,97312.06
2022-10-22T21:29:05.617Z,97336.25
2022-10-22T21:31:32.236Z,97340.28
2022-10-22T21:33:58.894Z,97319.03
2022-10-22T21:36:25.599Z,97296.16
2022-10-22T21:38:52.322Z,97306.94
2022-10-22T21:41:20.242Z,97300.28
2022-10-22T21:43:47.018Z,97276.66
2022-10-22T21:46:15.804Z,97313.50
2022-10-22T21:48:42.437Z,97299.00
2022-10-22T21:51:17.249Z,97292.56
2022-10-22T21:53:44.085Z,97308.16
2022-10-22T21:56:28.179Z,97321.59
2022-10-22T21:58:56.189Z,97298.22
2022-10-22T22:01:22.835Z,97316.25
2022-10-22T22:03:49.515Z,97307.38
2022-10-22T22:06:21.116Z,97275.16
2022-10-22T22:08:48.791Z,97294.22
2022-10-22T22:11:17.213Z,97298.25
2022-10-22T22:13:44.192Z,97286.44
2022-10-22T22:16:12.548Z,97302.81
2022-10-22T22:18:39.658Z,97315.44
2022-10-22T22:21:08.065Z,97306.31
2022-10-22T22:23:39.548Z,97303.63
2022-10-22T22:26:06.490Z,97299.59
2022-10-22T22:28:34.123Z,97303.66
2022-10-22T22:31:00.719Z,97296.09
2022-10-22T22:33:27.483Z,97312.22
2022-10-22T22:35:58.342Z,97323.50
2022-10-22T22:38:24.936Z,97293.97
2022-10-22T22:40:51.542Z,97305.78
2022-10-22T22:43:18.196Z,97311.44
2022-10-22T22:45:44.788Z,97292.38
2022-10-22T22:48:11.451Z,97287.53
2022-10-22T22:50:38.025Z,97292.09
2022-10-22T22:53:04.627Z,97291.81
2022-10-22T22:55:31.215Z,97296.09
2022-10-22T22:57:58.185Z,97286.47
2022-10-22T23:00:24.938Z,97293.44
2022-10-22T23:02:54.902Z,97276.53
2022-10-22T23:05:21.524Z,97302.56
2022-10-22T23:07:48.156Z,97275.16
2022-10-22T23:10:14.854Z,97272.75
2022-10-22T23:12:41.662Z,97270.09
2022-10-22T23:15:08.641Z,97287.78
2022-10-22T23:20:02.988Z,97255.84
2022-10-22T23:22:29.575Z,97278.91
2022-10-22T23:24:56.127Z,97281.59
2022-10-22T23:27:22.680Z,97262.00
2022-10-22T23:29:49.281Z,97272.50
2022-10-22T23:32:15.913Z,97275.69
2022-10-22T23:34:42.650Z,97271.41
2022-10-22T23:37:10.834Z,97259.88
2022-10-22T23:42:28.051Z,97262.81
2022-10-22T23:44:54.641Z,97271.41
2022-10-22T23:47:22.025Z,97265.50
2022-10-22T23:49:48.593Z,97276.50
2022-10-22T23:52:15.156Z,97264.72
2022-10-22T23:54:41.710Z,97243.47
2022-10-22T23:57:08.270Z,97240.81
2022-10-22T23:59:34.858Z,97218.78
